sensor_id;sensor_type;location;lat;lon;timestamp;P1;durP1;ratioP1;P2;durP2;ratioP2
21034;SDS011;10676;50.848;3.272;2023-06-19T00:00:17;8.60;;;7.25;;
21034;SDS011;10676;50.848;3.272;2023-06-19T00:02:43;11.57;;;6.70;;
21034;SDS011;10676;50.848;3.272;2023-06-19T00:05:09;10.30;;;6.65;;
21034;SDS011;10676;50.848;3.272;2023-06-19T00:07:38;7.20;;;6.03;;
21034;SDS011;10676;50.848;3.272;2023-06-19T00:10:04;11.23;;;6.57;;
21034;SDS011;10676;50.848;3.272;2023-06-19T00:12:31;9.70;;;7.22;;
21034;SDS011;10676;50.848;3.272;2023-06-19T00:14:57;9.00;;;7.38;;
21034;SDS011;10676;50.848;3.272;2023-06-19T00:20:09;10.85;;;7.32;;
21034;SDS011;10676;50.848;3.272;2023-06-19T00:22:34;11.85;;;6.70;;
21034;SDS011;10676;50.848;3.272;2023-06-19T00:25:01;11.23;;;6.88;;
21034;SDS011;10676;50.848;3.272;2023-06-19T00:27:27;12.02;;;7.07;;
21034;SDS011;10676;50.848;3.272;2023-06-19T00:29:52;10.32;;;7.18;;
21034;SDS011;10676;50.848;3.272;2023-06-19T00:32:22;10.63;;;7.05;;
21034;SDS011;10676;50.848;3.272;2023-06-19T00:34:48;11.30;;;7.72;;
21034;SDS011;10676;50.848;3.272;2023-06-19T00:37:14;11.15;;;7.78;;
21034;SDS011;10676;50.848;3.272;2023-06-19T00:39:39;13.30;;;8.43;;
21034;SDS011;10676;50.848;3.272;2023-06-19T00:42:06;15.65;;;8.98;;
21034;SDS011;10676;50.848;3.272;2023-06-19T00:44:31;14.75;;;9.20;;
21034;SDS011;10676;50.848;3.272;2023-06-19T00:46:58;13.65;;;9.02;;
21034;SDS011;10676;50.848;3.272;2023-06-19T00:49:25;15.38;;;9.93;;
21034;SDS011;10676;50.848;3.272;2023-06-19T00:51:54;15.73;;;9.45;;
21034;SDS011;10676;50.848;3.272;2023-06-19T00:54:19;9.63;;;6.50;;
21034;SDS011;10676;50.848;3.272;2023-06-19T00:56:46;9.73;;;6.47;;
21034;SDS011;10676;50.848;3.272;2023-06-19T00:59:27;9.48;;;6.53;;
21034;SDS011;10676;50.848;3.272;2023-06-19T01:01:54;7.03;;;5.30;;
21034;SDS011;10676;50.848;3.272;2023-06-19T01:04:21;4.47;;;3.63;;
21034;SDS011;10676;50.848;3.272;2023-06-19T01:09:22;5.68;;;3.58;;
21034;SDS011;10676;50.848;3.272;2023-06-19T01:11:53;6.07;;;3.75;;
21034;SDS011;10676;50.848;3.272;2023-06-19T01:14:25;6.68;;;3.88;;
21034;SDS011;10676;50.848;3.272;2023-06-19T01:17:01;5.68;;;4.53;;
21034;SDS011;10676;50.848;3.272;2023-06-19T01:19:27;7.03;;;4.95;;
21034;SDS011;10676;50.848;3.272;2023-06-19T01:21:53;7.05;;;4.75;;
21034;SDS011;10676;50.848;3.272;2023-06-19T01:24:19;7.78;;;5.00;;
21034;SDS011;10676;50.848;3.272;2023-06-19T01:26:46;8.63;;;4.85;;
21034;SDS011;10676;50.848;3.272;2023-06-19T01:29:15;8.38;;;4.78;;
21034;SDS011;10676;50.848;3.272;2023-06-19T01:31:58;6.88;;;4.80;;
21034;SDS011;10676;50.848;3.272;2023-06-19T01:34:32;10.02;;;5.53;;
21034;SDS011;10676;50.848;3.272;2023-06-19T01:37:04;7.45;;;5.40;;
21034;SDS011;10676;50.848;3.272;2023-06-19T01:39:41;8.32;;;6.20;;
21034;SDS011;10676;50.848;3.272;2023-06-19T01:42:07;10.80;;;6.82;;
21034;SDS011;10676;50.848;3.272;2023-06-19T01:44:35;10.20;;;7.63;;
21034;SDS011;10676;50.848;3.272;2023-06-19T01:47:07;9.82;;;7.15;;
21034;SDS011;10676;50.848;3.272;2023-06-19T01:49:34;8.90;;;6.90;;
21034;SDS011;10676;50.848;3.272;2023-06-19T01:52:00;11.52;;;7.15;;
21034;SDS011;10676;50.848;3.272;2023-06-19T01:54:26;11.60;;;7.85;;
21034;SDS011;10676;50.848;3.272;2023-06-19T01:59:22;13.25;;;9.10;;
21034;SDS011;10676;50.848;3.272;2023-06-19T02:01:47;12.65;;;9.55;;
21034;SDS011;10676;50.848;3.272;2023-06-19T02:04:14;12.57;;;9.48;;
21034;SDS011;10676;50.848;3.272;2023-06-19T02:06:40;12.10;;;8.88;;
21034;SDS011;10676;50.848;3.272;2023-06-19T02:09:06;13.45;;;9.95;;
21034;SDS011;10676;50.848;3.272;2023-06-19T02:11:32;15.73;;;9.95;;
21034;SDS011;10676;50.848;3.272;2023-06-19T02:13:58;14.73;;;9.57;;
21034;SDS011;10676;50.848;3.272;2023-06-19T02:16:24;13.90;;;10.23;;
21034;SDS011;10676;50.848;3.272;2023-06-19T02:18:49;16.55;;;10.43;;
21034;SDS011;10676;50.848;3.272;2023-06-19T02:21:23;15.45;;;10.95;;
21034;SDS011;10676;50.848;3.272;2023-06-19T02:23:49;18.17;;;11.65;;
21034;SDS011;10676;50.848;3.272;2023-06-19T02:26:21;14.90;;;11.35;;
21034;SDS011;10676;50.848;3.272;2023-06-19T02:28:47;17.13;;;11.38;;
21034;SDS011;10676;50.848;3.272;2023-06-19T02:31:12;17.92;;;11.55;;
21034;SDS011;10676;50.848;3.272;2023-06-19T02:33:38;15.75;;;11.15;;
21034;SDS011;10676;50.848;3.272;2023-06-19T02:36:11;19.08;;;12.80;;
21034;SDS011;10676;50.848;3.272;2023-06-19T02:38:37;18.15;;;12.27;;
21034;SDS011;10676;50.848;3.272;2023-06-19T02:41:03;17.27;;;12.52;;
21034;SDS011;10676;50.848;3.272;2023-06-19T02:43:29;18.67;;;12.10;;
21034;SDS011;10676;50.848;3.272;2023-06-19T02:45:55;18.00;;;12.48;;
21034;SDS011;10676;50.848;3.272;2023-06-19T02:48:20;17.77;;;13.32;;
21034;SDS011;10676;50.848;3.272;2023-06-19T02:50:48;21.27;;;13.65;;
21034;SDS011;10676;50.848;3.272;2023-06-19T02:53:14;20.92;;;13.88;;
21034;SDS011;10676;50.848;3.272;2023-06-19T02:55:41;21.40;;;13.70;;
21034;SDS011;10676;50.848;3.272;2023-06-19T02:58:07;22.88;;;14.45;;
21034;SDS011;10676;50.848;3.272;2023-06-19T03:00:32;24.73;;;15.25;;
21034;SDS011;10676;50.848;3.272;2023-06-19T03:02:58;24.30;;;15.45;;
21034;SDS011;10676;50.848;3.272;2023-06-19T03:05:24;25.95;;;16.27;;
21034;SDS011;10676;50.848;3.272;2023-06-19T03:07:52;27.98;;;16.73;;
21034;SDS011;10676;50.848;3.272;2023-06-19T03:10:20;31.75;;;17.67;;
21034;SDS011;10676;50.848;3.272;2023-06-19T03:12:45;27.95;;;16.10;;
21034;SDS011;10676;50.848;3.272;2023-06-19T03:15:11;24.65;;;16.90;;
21034;SDS011;10676;50.848;3.272;2023-06-19T03:17:36;28.60;;;18.40;;
21034;SDS011;10676;50.848;3.272;2023-06-19T03:22:36;29.83;;;17.38;;
21034;SDS011;10676;50.848;3.272;2023-06-19T03:25:08;28.23;;;18.95;;
21034;SDS011;10676;50.848;3.272;2023-06-19T03:27:34;29.17;;;19.25;;
21034;SDS011;10676;50.848;3.272;2023-06-19T03:30:01;35.22;;;20.55;;
21034;SDS011;10676;50.848;3.272;2023-06-19T03:32:31;37.85;;;21.45;;
21034;SDS011;10676;50.848;3.272;2023-06-19T03:34:58;36.65;;;21.17;;
21034;SDS011;10676;50.848;3.272;2023-06-19T03:37:24;32.60;;;19.85;;
21034;SDS011;10676;50.848;3.272;2023-06-19T03:40:05;36.20;;;19.60;;
21034;SDS011;10676;50.848;3.272;2023-06-19T03:42:32;36.22;;;20.70;;
21034;SDS011;10676;50.848;3.272;2023-06-19T03:44:59;34.38;;;20.08;;
21034;SDS011;10676;50.848;3.272;2023-06-19T03:47:31;37.92;;;22.10;;
21034;SDS011;10676;50.848;3.272;2023-06-19T03:49:57;38.70;;;21.13;;
21034;SDS011;10676;50.848;3.272;2023-06-19T03:52:23;33.60;;;20.27;;
21034;SDS011;10676;50.848;3.272;2023-06-19T03:54:53;35.63;;;21.55;;
21034;SDS011;10676;50.848;3.272;2023-06-19T03:57:19;38.40;;;21.70;;
21034;SDS011;10676;50.848;3.272;2023-06-19T03:59:45;36.67;;;21.15;;
21034;SDS011;10676;50.848;3.272;2023-06-19T04:02:11;34.80;;;21.35;;
21034;SDS011;10676;50.848;3.272;2023-06-19T04:04:50;35.50;;;21.13;;
21034;SDS011;10676;50.848;3.272;2023-06-19T04:07:15;36.42;;;20.30;;
21034;SDS011;10676;50.848;3.272;2023-06-19T04:09:44;35.47;;;20.65;;
21034;SDS011;10676;50.848;3.272;2023-06-19T04:12:10;35.97;;;21.58;;
21034;SDS011;10676;50.848;3.272;2023-06-19T04:14:36;36.53;;;21.67;;
21034;SDS011;10676;50.848;3.272;2023-06-19T04:17:01;36.05;;;21.38;;
21034;SDS011;10676;50.848;3.272;2023-06-19T04:19:27;36.50;;;20.35;;
21034;SDS011;10676;50.848;3.272;2023-06-19T04:21:54;36.08;;;22.00;;
21034;SDS011;10676;50.848;3.272;2023-06-19T04:24:19;38.35;;;21.17;;
21034;SDS011;10676;50.848;3.272;2023-06-19T04:26:45;37.55;;;21.60;;
21034;SDS011;10676;50.848;3.272;2023-06-19T04:29:11;30.45;;;19.85;;
21034;SDS011;10676;50.848;3.272;2023-06-19T04:31:41;33.40;;;19.38;;
21034;SDS011;10676;50.848;3.272;2023-06-19T04:34:12;32.95;;;19.80;;
21034;SDS011;10676;50.848;3.272;2023-06-19T04:36:40;33.00;;;19.73;;
21034;SDS011;10676;50.848;3.272;2023-06-19T04:39:06;33.10;;;19.35;;
21034;SDS011;10676;50.848;3.272;2023-06-19T04:41:39;32.38;;;20.48;;
21034;SDS011;10676;50.848;3.272;2023-06-19T04:44:06;32.53;;;19.98;;
21034;SDS011;10676;50.848;3.272;2023-06-19T04:46:32;33.55;;;19.65;;
21034;SDS011;10676;50.848;3.272;2023-06-19T04:48:58;34.42;;;20.70;;
21034;SDS011;10676;50.848;3.272;2023-06-19T04:51:24;32.05;;;19.13;;
21034;SDS011;10676;50.848;3.272;2023-06-19T04:53:58;33.22;;;19.83;;
21034;SDS011;10676;50.848;3.272;2023-06-19T04:56:24;30.60;;;18.38;;
21034;SDS011;10676;50.848;3.272;2023-06-19T04:58:49;31.55;;;19.02;;
21034;SDS011;10676;50.848;3.272;2023-06-19T05:01:16;31.27;;;19.08;;
21034;SDS011;10676;50.848;3.272;2023-06-19T05:03:44;29.00;;;18.48;;
21034;SDS011;10676;50.848;3.272;2023-06-19T05:06:11;34.13;;;19.83;;
21034;SDS011;10676;50.848;3.272;2023-06-19T05:08:37;30.65;;;19.45;;
21034;SDS011;10676;50.848;3.272;2023-06-19T05:11:03;36.28;;;20.55;;
21034;SDS011;10676;50.848;3.272;2023-06-19T05:13:29;29.48;;;18.13;;
21034;SDS011;10676;50.848;3.272;2023-06-19T05:15:55;27.70;;;17.77;;
21034;SDS011;10676;50.848;3.272;2023-06-19T05:18:21;28.63;;;18.45;;
21034;SDS011;10676;50.848;3.272;2023-06-19T05:20:50;28.05;;;18.17;;
21034;SDS011;10676;50.848;3.272;2023-06-19T05:23:16;27.13;;;16.83;;
21034;SDS011;10676;50.848;3.272;2023-06-19T05:25:41;24.83;;;16.83;;
21034;SDS011;10676;50.848;3.272;2023-06-19T05:28:08;30.73;;;18.02;;
21034;SDS011;10676;50.848;3.272;2023-06-19T05:30:34;31.98;;;17.85;;
21034;SDS011;10676;50.848;3.272;2023-06-19T05:33:00;33.03;;;18.88;;
21034;SDS011;10676;50.848;3.272;2023-06-19T05:35:25;28.88;;;18.55;;
21034;SDS011;10676;50.848;3.272;2023-06-19T05:37:55;30.98;;;19.80;;
21034;SDS011;10676;50.848;3.272;2023-06-19T05:40:21;28.38;;;18.83;;
21034;SDS011;10676;50.848;3.272;2023-06-19T05:42:46;34.75;;;20.75;;
21034;SDS011;10676;50.848;3.272;2023-06-19T05:45:12;34.33;;;19.50;;
21034;SDS011;10676;50.848;3.272;2023-06-19T05:47:38;33.35;;;19.80;;
21034;SDS011;10676;50.848;3.272;2023-06-19T05:50:03;31.63;;;20.10;;
21034;SDS011;10676;50.848;3.272;2023-06-19T05:52:29;32.40;;;19.55;;
21034;SDS011;10676;50.848;3.272;2023-06-19T05:54:57;28.55;;;18.95;;
21034;SDS011;10676;50.848;3.272;2023-06-19T05:57:23;29.08;;;18.85;;
21034;SDS011;10676;50.848;3.272;2023-06-19T05:59:49;28.30;;;19.20;;
21034;SDS011;10676;50.848;3.272;2023-06-19T06:02:19;29.63;;;18.33;;
21034;SDS011;10676;50.848;3.272;2023-06-19T06:04:46;27.33;;;17.23;;
21034;SDS011;10676;50.848;3.272;2023-06-19T06:07:12;26.90;;;18.08;;
21034;SDS011;10676;50.848;3.272;2023-06-19T06:09:38;28.88;;;17.02;;
21034;SDS011;10676;50.848;3.272;2023-06-19T06:12:04;31.23;;;18.40;;
21034;SDS011;10676;50.848;3.272;2023-06-19T06:14:31;26.48;;;18.00;;
21034;SDS011;10676;50.848;3.272;2023-06-19T06:16:57;27.30;;;17.33;;
21034;SDS011;10676;50.848;3.272;2023-06-19T06:19:23;25.52;;;15.85;;
21034;SDS011;10676;50.848;3.272;2023-06-19T06:21:49;26.13;;;18.80;;
21034;SDS011;10676;50.848;3.272;2023-06-19T06:24:15;28.83;;;18.75;;
21034;SDS011;10676;50.848;3.272;2023-06-19T06:26:45;26.27;;;17.52;;
21034;SDS011;10676;50.848;3.272;2023-06-19T06:29:11;28.25;;;17.67;;
21034;SDS011;10676;50.848;3.272;2023-06-19T06:31:37;29.55;;;17.13;;
21034;SDS011;10676;50.848;3.272;2023-06-19T06:34:03;27.50;;;18.17;;
21034;SDS011;10676;50.848;3.272;2023-06-19T06:36:32;35.83;;;19.17;;
21034;SDS011;10676;50.848;3.272;2023-06-19T06:38:59;26.58;;;17.92;;
21034;SDS011;10676;50.848;3.272;2023-06-19T06:41:25;28.75;;;19.20;;
21034;SDS011;10676;50.848;3.272;2023-06-19T06:43:50;25.48;;;18.50;;
21034;SDS011;10676;50.848;3.272;2023-06-19T06:46:17;25.58;;;18.50;;
21034;SDS011;10676;50.848;3.272;2023-06-19T06:48:42;25.90;;;17.73;;
21034;SDS011;10676;50.848;3.272;2023-06-19T06:51:16;26.60;;;17.17;;
21034;SDS011;10676;50.848;3.272;2023-06-19T06:53:42;21.80;;;16.25;;
21034;SDS011;10676;50.848;3.272;2023-06-19T06:56:23;22.08;;;14.48;;
21034;SDS011;10676;50.848;3.272;2023-06-19T06:58:49;20.52;;;14.75;;
21034;SDS011;10676;50.848;3.272;2023-06-19T07:01:18;25.30;;;14.63;;
21034;SDS011;10676;50.848;3.272;2023-06-19T07:03:44;19.75;;;13.82;;
21034;SDS011;10676;50.848;3.272;2023-06-19T07:06:09;20.52;;;14.70;;
21034;SDS011;10676;50.848;3.272;2023-06-19T07:08:35;19.73;;;13.93;;
21034;SDS011;10676;50.848;3.272;2023-06-19T07:11:00;22.52;;;14.70;;
21034;SDS011;10676;50.848;3.272;2023-06-19T07:13:31;18.27;;;12.73;;
21034;SDS011;10676;50.848;3.272;2023-06-19T07:15:57;17.80;;;12.68;;
21034;SDS011;10676;50.848;3.272;2023-06-19T07:18:24;19.98;;;12.30;;
21034;SDS011;10676;50.848;3.272;2023-06-19T07:20:56;17.55;;;12.00;;
21034;SDS011;10676;50.848;3.272;2023-06-19T07:23:21;20.13;;;12.68;;
21034;SDS011;10676;50.848;3.272;2023-06-19T07:25:47;16.55;;;11.73;;
21034;SDS011;10676;50.848;3.272;2023-06-19T07:28:13;17.15;;;12.27;;
21034;SDS011;10676;50.848;3.272;2023-06-19T07:33:31;18.33;;;11.88;;
21034;SDS011;10676;50.848;3.272;2023-06-19T07:35:57;16.98;;;11.13;;
21034;SDS011;10676;50.848;3.272;2023-06-19T07:38:23;13.80;;;10.73;;
21034;SDS011;10676;50.848;3.272;2023-06-19T07:40:49;18.40;;;11.52;;
21034;SDS011;10676;50.848;3.272;2023-06-19T07:43:18;18.60;;;10.75;;
21034;SDS011;10676;50.848;3.272;2023-06-19T07:45:44;19.30;;;11.48;;
21034;SDS011;10676;50.848;3.272;2023-06-19T07:48:09;16.92;;;11.18;;
21034;SDS011;10676;50.848;3.272;2023-06-19T07:50:35;16.42;;;11.13;;
21034;SDS011;10676;50.848;3.272;2023-06-19T07:53:01;15.50;;;10.35;;
21034;SDS011;10676;50.848;3.272;2023-06-19T07:55:26;15.93;;;11.73;;
21034;SDS011;10676;50.848;3.272;2023-06-19T07:57:54;14.13;;;10.35;;
21034;SDS011;10676;50.848;3.272;2023-06-19T08:00:23;14.00;;;10.55;;
21034;SDS011;10676;50.848;3.272;2023-06-19T08:02:49;14.95;;;10.30;;
21034;SDS011;10676;50.848;3.272;2023-06-19T08:05:15;14.70;;;10.63;;
21034;SDS011;10676;50.848;3.272;2023-06-19T08:07:41;16.25;;;10.68;;
21034;SDS011;10676;50.848;3.272;2023-06-19T08:10:07;17.65;;;10.38;;
21034;SDS011;10676;50.848;3.272;2023-06-19T08:12:33;14.45;;;10.18;;
21034;SDS011;10676;50.848;3.272;2023-06-19T08:14:59;13.38;;;9.65;;
21034;SDS011;10676;50.848;3.272;2023-06-19T08:17:25;13.98;;;9.30;;
21034;SDS011;10676;50.848;3.272;2023-06-19T08:19:51;15.18;;;9.75;;
21034;SDS011;10676;50.848;3.272;2023-06-19T08:22:17;12.90;;;9.30;;
21034;SDS011;10676;50.848;3.272;2023-06-19T08:24:43;14.32;;;9.38;;
21034;SDS011;10676;50.848;3.272;2023-06-19T08:27:09;14.27;;;8.50;;
21034;SDS011;10676;50.848;3.272;2023-06-19T08:29:35;14.15;;;9.20;;
21034;SDS011;10676;50.848;3.272;2023-06-19T08:32:01;13.07;;;8.05;;
21034;SDS011;10676;50.848;3.272;2023-06-19T08:34:27;14.82;;;8.55;;
21034;SDS011;10676;50.848;3.272;2023-06-19T08:36:54;12.40;;;7.60;;
21034;SDS011;10676;50.848;3.272;2023-06-19T08:39:20;11.60;;;7.90;;
21034;SDS011;10676;50.848;3.272;2023-06-19T08:41:47;12.13;;;7.50;;
21034;SDS011;10676;50.848;3.272;2023-06-19T08:44:29;14.00;;;7.43;;
21034;SDS011;10676;50.848;3.272;2023-06-19T08:46:55;8.95;;;6.63;;
21034;SDS011;10676;50.848;3.272;2023-06-19T08:49:22;12.45;;;7.07;;
21034;SDS011;10676;50.848;3.272;2023-06-19T08:51:48;10.43;;;7.28;;
21034;SDS011;10676;50.848;3.272;2023-06-19T08:54:14;11.43;;;7.22;;
21034;SDS011;10676;50.848;3.272;2023-06-19T08:56:40;11.63;;;7.45;;
21034;SDS011;10676;50.848;3.272;2023-06-19T08:59:12;9.70;;;6.93;;
21034;SDS011;10676;50.848;3.272;2023-06-19T09:01:45;10.40;;;7.20;;
21034;SDS011;10676;50.848;3.272;2023-06-19T09:04:17;12.73;;;7.75;;
21034;SDS011;10676;50.848;3.272;2023-06-19T09:06:48;13.05;;;8.00;;
21034;SDS011;10676;50.848;3.272;2023-06-19T09:09:18;11.98;;;7.30;;
21034;SDS011;10676;50.848;3.272;2023-06-19T09:17:04;10.68;;;6.40;;
21034;SDS011;10676;50.848;3.272;2023-06-19T09:19:32;10.93;;;7.07;;
21034;SDS011;10676;50.848;3.272;2023-06-19T09:22:02;11.32;;;7.75;;
21034;SDS011;10676;50.848;3.272;2023-06-19T09:24:33;10.07;;;6.65;;
21034;SDS011;10676;50.848;3.272;2023-06-19T09:27:07;8.65;;;6.22;;
21034;SDS011;10676;50.848;3.272;2023-06-19T09:29:36;11.07;;;5.68;;
21034;SDS011;10676;50.848;3.272;2023-06-19T09:32:21;10.98;;;6.60;;
21034;SDS011;10676;50.848;3.272;2023-06-19T09:34:48;12.40;;;7.32;;
21034;SDS011;10676;50.848;3.272;2023-06-19T09:37:22;8.45;;;7.00;;
21034;SDS011;10676;50.848;3.272;2023-06-19T09:39:53;13.77;;;7.50;;
21034;SDS011;10676;50.848;3.272;2023-06-19T09:42:27;9.63;;;7.05;;
21034;SDS011;10676;50.848;3.272;2023-06-19T09:44:59;10.88;;;7.78;;
21034;SDS011;10676;50.848;3.272;2023-06-19T09:47:31;11.57;;;7.68;;
21034;SDS011;10676;50.848;3.272;2023-06-19T09:50:00;7.28;;;6.45;;
21034;SDS011;10676;50.848;3.272;2023-06-19T09:52:28;10.43;;;7.53;;
21034;SDS011;10676;50.848;3.272;2023-06-19T09:54:54;11.93;;;7.70;;
21034;SDS011;10676;50.848;3.272;2023-06-19T09:57:20;9.98;;;6.35;;
21034;SDS011;10676;50.848;3.272;2023-06-19T09:59:50;8.85;;;6.05;;
21034;SDS011;10676;50.848;3.272;2023-06-19T10:02:19;10.23;;;5.68;;
21034;SDS011;10676;50.848;3.272;2023-06-19T10:04:46;8.52;;;6.15;;
21034;SDS011;10676;50.848;3.272;2023-06-19T10:07:19;7.30;;;5.47;;
21034;SDS011;10676;50.848;3.272;2023-06-19T10:12:38;8.55;;;5.32;;
21034;SDS011;10676;50.848;3.272;2023-06-19T10:15:09;7.40;;;5.30;;
21034;SDS011;10676;50.848;3.272;2023-06-19T10:17:35;7.60;;;5.53;;
21034;SDS011;10676;50.848;3.272;2023-06-19T10:20:02;10.25;;;6.28;;
21034;SDS011;10676;50.848;3.272;2023-06-19T10:22:31;7.20;;;5.70;;
21034;SDS011;10676;50.848;3.272;2023-06-19T10:24:57;10.57;;;6.25;;
21034;SDS011;10676;50.848;3.272;2023-06-19T10:27:24;8.02;;;4.82;;
21034;SDS011;10676;50.848;3.272;2023-06-19T10:29:54;9.20;;;6.63;;
21034;SDS011;10676;50.848;3.272;2023-06-19T10:32:20;8.85;;;6.20;;
21034;SDS011;10676;50.848;3.272;2023-06-19T10:34:47;7.35;;;6.32;;
21034;SDS011;10676;50.848;3.272;2023-06-19T10:37:14;9.75;;;6.13;;
21034;SDS011;10676;50.848;3.272;2023-06-19T10:39:42;7.18;;;6.20;;
21034;SDS011;10676;50.848;3.272;2023-06-19T10:42:08;7.93;;;6.05;;
21034;SDS011;10676;50.848;3.272;2023-06-19T10:44:35;7.68;;;4.85;;
21034;SDS011;10676;50.848;3.272;2023-06-19T10:47:04;9.48;;;5.15;;
21034;SDS011;10676;50.848;3.272;2023-06-19T10:49:32;8.68;;;5.03;;
21034;SDS011;10676;50.848;3.272;2023-06-19T10:51:59;6.65;;;4.63;;
21034;SDS011;10676;50.848;3.272;2023-06-19T10:54:25;10.57;;;5.60;;
21034;SDS011;10676;50.848;3.272;2023-06-19T10:56:51;6.93;;;5.05;;
21034;SDS011;10676;50.848;3.272;2023-06-19T10:59:17;6.38;;;4.72;;
21034;SDS011;10676;50.848;3.272;2023-06-19T11:01:47;9.48;;;5.72;;
21034;SDS011;10676;50.848;3.272;2023-06-19T11:04:15;6.85;;;5.22;;
21034;SDS011;10676;50.848;3.272;2023-06-19T11:06:42;7.38;;;5.50;;
21034;SDS011;10676;50.848;3.272;2023-06-19T11:09:09;6.80;;;5.30;;
21034;SDS011;10676;50.848;3.272;2023-06-19T11:11:41;5.72;;;5.00;;
21034;SDS011;10676;50.848;3.272;2023-06-19T11:14:08;6.50;;;4.47;;
21034;SDS011;10676;50.848;3.272;2023-06-19T11:16:35;7.15;;;4.18;;
21034;SDS011;10676;50.848;3.272;2023-06-19T11:19:05;6.30;;;4.90;;
21034;SDS011;10676;50.848;3.272;2023-06-19T11:21:32;10.68;;;6.00;;
21034;SDS011;10676;50.848;3.272;2023-06-19T11:24:03;9.20;;;6.32;;
21034;SDS011;10676;50.848;3.272;2023-06-19T11:26:33;9.25;;;5.78;;
21034;SDS011;10676;50.848;3.272;2023-06-19T11:29:00;5.85;;;5.13;;
21034;SDS011;10676;50.848;3.272;2023-06-19T11:31:28;7.80;;;4.72;;
21034;SDS011;10676;50.848;3.272;2023-06-19T11:33:58;6.70;;;4.70;;
21034;SDS011;10676;50.848;3.272;2023-06-19T11:36:24;8.63;;;4.38;;
21034;SDS011;10676;50.848;3.272;2023-06-19T11:38:51;7.13;;;4.88;;
21034;SDS011;10676;50.848;3.272;2023-06-19T11:41:28;6.85;;;5.22;;
21034;SDS011;10676;50.848;3.272;2023-06-19T11:44:03;6.82;;;5.15;;
21034;SDS011;10676;50.848;3.272;2023-06-19T11:46:31;10.20;;;5.30;;
21034;SDS011;10676;50.848;3.272;2023-06-19T11:49:13;8.75;;;5.30;;
21034;SDS011;10676;50.848;3.272;2023-06-19T11:51:42;8.30;;;5.45;;
21034;SDS011;10676;50.848;3.272;2023-06-19T11:54:08;6.85;;;5.85;;
21034;SDS011;10676;50.848;3.272;2023-06-19T11:56:35;9.85;;;6.07;;
21034;SDS011;10676;50.848;3.272;2023-06-19T11:59:01;8.68;;;5.93;;
21034;SDS011;10676;50.848;3.272;2023-06-19T12:01:28;9.23;;;5.68;;
21034;SDS011;10676;50.848;3.272;2023-06-19T12:03:59;9.25;;;6.63;;
21034;SDS011;10676;50.848;3.272;2023-06-19T12:06:26;6.38;;;5.50;;
21034;SDS011;10676;50.848;3.272;2023-06-19T12:08:52;7.20;;;6.10;;
21034;SDS011;10676;50.848;3.272;2023-06-19T12:11:17;7.75;;;5.82;;
21034;SDS011;10676;50.848;3.272;2023-06-19T12:13:43;8.15;;;5.47;;
21034;SDS011;10676;50.848;3.272;2023-06-19T12:16:10;9.88;;;6.00;;
21034;SDS011;10676;50.848;3.272;2023-06-19T12:18:43;8.68;;;5.70;;
21034;SDS011;10676;50.848;3.272;2023-06-19T12:21:09;7.93;;;5.60;;
21034;SDS011;10676;50.848;3.272;2023-06-19T12:23:34;6.28;;;5.10;;
21034;SDS011;10676;50.848;3.272;2023-06-19T12:26:00;6.95;;;5.78;;
21034;SDS011;10676;50.848;3.272;2023-06-19T12:28:26;6.88;;;4.90;;
21034;SDS011;10676;50.848;3.272;2023-06-19T12:30:52;5.43;;;4.47;;
21034;SDS011;10676;50.848;3.272;2023-06-19T12:33:19;8.07;;;4.88;;
21034;SDS011;10676;50.848;3.272;2023-06-19T12:35:48;4.85;;;4.38;;
21034;SDS011;10676;50.848;3.272;2023-06-19T12:38:14;8.30;;;5.28;;
21034;SDS011;10676;50.848;3.272;2023-06-19T12:40:40;8.18;;;4.72;;
21034;SDS011;10676;50.848;3.272;2023-06-19T12:43:06;8.13;;;5.22;;
21034;SDS011;10676;50.848;3.272;2023-06-19T12:45:32;7.07;;;5.22;;
21034;SDS011;10676;50.848;3.272;2023-06-19T12:47:58;6.43;;;4.72;;
21034;SDS011;10676;50.848;3.272;2023-06-19T12:50:27;7.82;;;5.80;;
21034;SDS011;10676;50.848;3.272;2023-06-19T12:52:53;6.88;;;5.13;;
21034;SDS011;10676;50.848;3.272;2023-06-19T12:55:20;5.78;;;5.20;;
21034;SDS011;10676;50.848;3.272;2023-06-19T12:57:46;5.47;;;4.93;;
21034;SDS011;10676;50.848;3.272;2023-06-19T13:00:19;8.55;;;6.00;;
21034;SDS011;10676;50.848;3.272;2023-06-19T13:02:45;6.68;;;4.68;;
21034;SDS011;10676;50.848;3.272;2023-06-19T13:05:12;6.97;;;5.53;;
21034;SDS011;10676;50.848;3.272;2023-06-19T13:07:37;6.82;;;4.85;;
21034;SDS011;10676;50.848;3.272;2023-06-19T13:10:03;7.60;;;5.15;;
21034;SDS011;10676;50.848;3.272;2023-06-19T13:12:31;7.97;;;4.60;;
21034;SDS011;10676;50.848;3.272;2023-06-19T13:14:57;5.28;;;4.20;;
21034;SDS011;10676;50.848;3.272;2023-06-19T13:17:35;6.28;;;4.65;;
21034;SDS011;10676;50.848;3.272;2023-06-19T13:20:01;9.02;;;5.00;;
21034;SDS011;10676;50.848;3.272;2023-06-19T13:22:29;6.38;;;5.20;;
21034;SDS011;10676;50.848;3.272;2023-06-19T13:24:55;6.70;;;5.15;;
21034;SDS011;10676;50.848;3.272;2023-06-19T13:27:21;8.27;;;5.10;;
21034;SDS011;10676;50.848;3.272;2023-06-19T13:29:47;6.45;;;4.75;;
21034;SDS011;10676;50.848;3.272;2023-06-19T13:32:13;6.43;;;4.60;;
21034;SDS011;10676;50.848;3.272;2023-06-19T13:34:38;6.80;;;4.78;;
21034;SDS011;10676;50.848;3.272;2023-06-19T13:37:04;8.10;;;5.25;;
21034;SDS011;10676;50.848;3.272;2023-06-19T13:39:30;8.30;;;5.20;;
21034;SDS011;10676;50.848;3.272;2023-06-19T13:41:56;7.18;;;4.97;;
21034;SDS011;10676;50.848;3.272;2023-06-19T13:44:25;6.05;;;4.70;;
21034;SDS011;10676;50.848;3.272;2023-06-19T13:46:51;7.32;;;5.10;;
21034;SDS011;10676;50.848;3.272;2023-06-19T13:49:17;8.52;;;4.97;;
21034;SDS011;10676;50.848;3.272;2023-06-19T13:51:43;9.60;;;4.97;;
21034;SDS011;10676;50.848;3.272;2023-06-19T13:54:09;5.93;;;4.95;;
21034;SDS011;10676;50.848;3.272;2023-06-19T13:56:35;7.07;;;5.13;;
21034;SDS011;10676;50.848;3.272;2023-06-19T13:59:02;5.55;;;4.80;;
21034;SDS011;10676;50.848;3.272;2023-06-19T14:01:28;7.20;;;5.15;;
21034;SDS011;10676;50.848;3.272;2023-06-19T14:03:53;6.07;;;4.85;;
21034;SDS011;10676;50.848;3.272;2023-06-19T14:06:19;8.23;;;4.80;;
21034;SDS011;10676;50.848;3.272;2023-06-19T14:08:45;5.68;;;4.88;;
21034;SDS011;10676;50.848;3.272;2023-06-19T14:11:13;5.95;;;4.80;;
21034;SDS011;10676;50.848;3.272;2023-06-19T14:13:38;6.93;;;4.22;;
21034;SDS011;10676;50.848;3.272;2023-06-19T14:16:04;6.35;;;4.78;;
21034;SDS011;10676;50.848;3.272;2023-06-19T14:18:32;5.68;;;4.90;;
21034;SDS011;10676;50.848;3.272;2023-06-19T14:20:58;6.07;;;4.53;;
21034;SDS011;10676;50.848;3.272;2023-06-19T14:23:24;5.43;;;4.40;;
21034;SDS011;10676;50.848;3.272;2023-06-19T14:25:49;6.80;;;4.70;;
21034;SDS011;10676;50.848;3.272;2023-06-19T14:28:15;6.70;;;4.45;;
21034;SDS011;10676;50.848;3.272;2023-06-19T14:30:41;5.75;;;4.35;;
21034;SDS011;10676;50.848;3.272;2023-06-19T14:33:07;6.15;;;4.80;;
21034;SDS011;10676;50.848;3.272;2023-06-19T14:35:35;5.40;;;3.92;;
21034;SDS011;10676;50.848;3.272;2023-06-19T14:38:01;5.93;;;4.00;;
21034;SDS011;10676;50.848;3.272;2023-06-19T14:40:27;5.47;;;4.30;;
21034;SDS011;10676;50.848;3.272;2023-06-19T14:42:52;5.60;;;4.57;;
21034;SDS011;10676;50.848;3.272;2023-06-19T14:45:22;6.32;;;4.07;;
21034;SDS011;10676;50.848;3.272;2023-06-19T14:47:48;5.95;;;4.47;;
21034;SDS011;10676;50.848;3.272;2023-06-19T14:50:14;6.13;;;4.22;;
21034;SDS011;10676;50.848;3.272;2023-06-19T14:52:39;5.03;;;4.20;;
21034;SDS011;10676;50.848;3.272;2023-06-19T14:55:05;5.88;;;4.53;;